ΕΜΥ, Εθνική Μετεωρολογική Υπηρεσία - Δελτία Καιρού, Προγνώσεις

ΑΕΡΟΝΑΥΤΙΛΙΑ

GREEK AIRPORTS CODES

TAF LGST 180800Z 1809/1818 VRB05KT 9999 SCT020 BECMG 1809/1811 31010KT=

EUROPEAN AIRPORTS CODES

LFPO 180930Z 04009KT 9999 BKN023 07/03 Q1022 NOSIG=